Time;durP1;ratioP1;P1;durP2;ratioP2;P2;SDS_P1;SDS_P2;PMS_P1;PMS_P2;Temp;Humidity;BMP_temperature;BMP_pressure;BME280_temperature;BME280_humidity;BME280_pressure;Samples;Min_cycle;Max_cycle;Signal;HPM_P1;HPM_P2
2021/09/11 00:02:09;;;;;;;0.00;0.00;;;19.00;62.00;;;;;;5036622;28;20064;-76
2021/09/11 00:04:35;;;;;;;0.00;0.00;;;19.00;62.20;;;;;;5036551;28;20028;-76
2021/09/11 00:07:00;;;;;;;0.00;0.00;;;18.90;62.50;;;;;;5035728;28;20021;-76
2021/09/11 00:09:26;;;;;;;0.00;0.00;;;19.00;62.70;;;;;;5036527;28;20412;-76
2021/09/11 00:11:52;;;;;;;0.00;0.00;;;18.90;62.80;;;;;;5036224;28;20053;-76
2021/09/11 00:14:17;;;;;;;0.00;0.00;;;18.80;62.90;;;;;;5035760;28;20444;-75
2021/09/11 00:16:43;;;;;;;0.00;0.00;;;18.80;63.10;;;;;;5035944;28;20030;-75
2021/09/11 00:19:09;;;;;;;0.00;0.00;;;18.80;63.50;;;;;;5051141;28;20385;-76
2021/09/11 00:21:35;;;;;;;0.00;0.00;;;18.80;63.60;;;;;;5034405;28;20045;-76
2021/09/11 00:24:00;;;;;;;0.00;0.00;;;18.80;63.70;;;;;;5036322;28;20068;-75
2021/09/11 00:26:26;;;;;;;0.00;0.00;;;18.80;63.80;;;;;;5035405;28;20112;-75
2021/09/11 00:28:52;;;;;;;0.00;0.00;;;18.70;63.90;;;;;;5035142;28;20050;-76
2021/09/11 00:31:18;;;;;;;0.00;0.00;;;18.70;64.00;;;;;;5035397;28;20122;-75
2021/09/11 00:33:43;;;;;;;0.00;0.00;;;18.70;64.10;;;;;;5035675;28;20036;-76
2021/09/11 00:36:09;;;;;;;0.00;0.00;;;18.60;64.20;;;;;;5035410;28;20022;-76
2021/09/11 00:38:35;;;;;;;0.00;0.00;;;18.60;64.30;;;;;;5035817;28;20076;-75
2021/09/11 00:41:00;;;;;;;0.00;0.00;;;18.60;64.40;;;;;;5035333;28;20029;-75
2021/09/11 00:43:28;;;;;;;0.00;0.00;;;18.60;64.50;;;;;;5034670;28;20033;-76
2021/09/11 00:45:54;;;;;;;0.00;0.00;;;18.50;64.70;;;;;;5035538;28;20029;-75
2021/09/11 00:48:20;;;;;;;0.00;0.00;;;18.50;64.90;;;;;;5035172;28;20021;-75
2021/09/11 00:50:46;;;;;;;0.00;0.00;;;18.50;65.00;;;;;;5035288;28;20083;-77
2021/09/11 00:53:13;;;;;;;0.00;0.00;;;18.50;65.10;;;;;;5035037;28;20432;-76
2021/09/11 00:55:41;;;;;;;0.00;0.00;;;18.50;65.30;;;;;;5035665;28;20056;-75
2021/09/11 00:58:07;;;;;;;0.00;0.00;;;18.40;65.30;;;;;;5035606;28;20022;-75
2021/09/11 01:00:32;;;;;;;0.00;0.00;;;18.40;65.40;;;;;;5035267;28;20457;-76
2021/09/11 01:02:58;;;;;;;0.00;0.00;;;18.40;65.50;;;;;;5033967;28;20115;-75
2021/09/11 01:05:24;;;;;;;0.00;0.00;;;18.30;65.50;;;;;;5033738;28;20025;-75
2021/09/11 01:07:50;;;;;;;0.00;0.00;;;18.30;65.60;;;;;;5035050;28;20029;-75
2021/09/11 01:10:16;;;;;;;0.00;0.00;;;18.30;65.60;;;;;;5034908;28;20363;-74
2021/09/11 01:12:42;;;;;;;0.00;0.00;;;18.30;65.70;;;;;;5034986;28;20377;-76
2021/09/11 01:15:10;;;;;;;0.00;0.00;;;18.30;65.70;;;;;;5049992;28;20021;-75
2021/09/11 01:17:38;;;;;;;0.00;0.00;;;18.20;65.80;;;;;;5034959;28;20056;-75
2021/09/11 01:20:05;;;;;;;0.00;0.00;;;18.20;65.80;;;;;;5034648;28;20048;-75
2021/09/11 01:22:30;;;;;;;0.00;0.00;;;18.20;65.90;;;;;;5034708;28;20025;-75
2021/09/11 01:25:00;;;;;;;0.00;0.00;;;18.20;66.00;;;;;;5034595;28;20025;-77
2021/09/11 01:27:27;;;;;;;0.00;0.00;;;18.20;66.10;;;;;;5034607;28;20029;-74
2021/09/11 01:29:56;;;;;;;0.00;0.00;;;18.20;66.10;;;;;;5033177;28;20055;-74
2021/09/11 01:32:23;;;;;;;0.00;0.00;;;18.10;66.20;;;;;;5033412;28;20032;-75
2021/09/11 01:34:49;;;;;;;0.00;0.00;;;18.10;66.30;;;;;;5034493;28;20025;-75
2021/09/11 01:37:15;;;;;;;0.00;0.00;;;18.10;66.30;;;;;;5034962;28;20032;-74
2021/09/11 01:39:41;;;;;;;0.00;0.00;;;18.10;66.40;;;;;;5034620;28;20033;-75
2021/09/11 01:42:07;;;;;;;0.00;0.00;;;18.10;66.40;;;;;;5034834;28;20377;-74
2021/09/11 01:44:33;;;;;;;0.00;0.00;;;18.10;66.50;;;;;;5033516;28;20033;-75
2021/09/11 01:46:59;;;;;;;0.00;0.00;;;18.10;66.50;;;;;;5033376;28;20033;-75
2021/09/11 01:49:25;;;;;;;0.00;0.00;;;18.10;66.60;;;;;;5034239;28;20033;-74
2021/09/11 01:51:50;;;;;;;0.00;0.00;;;18.00;66.60;;;;;;5034257;28;20028;-74
2021/09/11 01:54:16;;;;;;;0.00;0.00;;;18.00;66.70;;;;;;5034751;28;20087;-76
2021/09/11 01:56:42;;;;;;;0.00;0.00;;;18.00;66.70;;;;;;5034749;28;20046;-75
2021/09/11 01:59:07;;;;;;;0.00;0.00;;;18.00;66.70;;;;;;5034101;28;20108;-75
2021/09/11 02:01:33;;;;;;;0.00;0.00;;;18.00;66.80;;;;;;5034068;28;20072;-77
2021/09/11 02:03:59;;;;;;;0.00;0.00;;;17.90;66.80;;;;;;5034319;28;20052;-75
2021/09/11 02:06:26;;;;;;;0.00;0.00;;;17.90;66.80;;;;;;5034249;28;20101;-75
2021/09/11 02:08:52;;;;;;;0.00;0.00;;;17.90;66.90;;;;;;5034311;28;20433;-74
2021/09/11 02:11:18;;;;;;;0.00;0.00;;;17.90;66.90;;;;;;5034168;28;20104;-74
2021/09/11 02:13:43;;;;;;;0.00;0.00;;;17.90;66.90;;;;;;5033993;28;20029;-76
2021/09/11 02:16:09;;;;;;;0.00;0.00;;;17.90;67.00;;;;;;5033839;28;20022;-75
2021/09/11 02:18:35;;;;;;;0.00;0.00;;;17.90;67.00;;;;;;5049379;28;20433;-75
2021/09/11 02:21:00;;;;;;;0.00;0.00;;;17.90;67.10;;;;;;5033964;28;20034;-74
2021/09/11 02:23:26;;;;;;;0.00;0.00;;;17.80;67.10;;;;;;5033789;28;20386;-75
2021/09/11 02:25:52;;;;;;;0.00;0.00;;;17.80;67.20;;;;;;5034427;28;20034;-74
2021/09/11 02:28:17;;;;;;;0.00;0.00;;;17.80;67.30;;;;;;5033535;28;20030;-75
2021/09/11 02:30:43;;;;;;;0.00;0.00;;;17.80;67.40;;;;;;5049173;28;20037;-75
2021/09/11 02:33:10;;;;;;;0.00;0.00;;;17.80;67.50;;;;;;5033805;28;20029;-75
2021/09/11 02:35:36;;;;;;;0.00;0.00;;;17.80;67.70;;;;;;5032438;28;20025;-76
2021/09/11 02:38:01;;;;;;;0.03;0.00;;;17.70;67.70;;;;;;5034311;28;20036;-74
2021/09/11 02:40:27;;;;;;;0.00;0.00;;;17.70;67.80;;;;;;5032747;28;20040;-75
2021/09/11 02:42:53;;;;;;;0.00;0.00;;;17.70;67.90;;;;;;5033806;28;20033;-75
2021/09/11 02:45:19;;;;;;;0.00;0.00;;;17.70;67.90;;;;;;5033826;28;20025;-74
2021/09/11 02:47:44;;;;;;;0.00;0.00;;;17.60;67.90;;;;;;5033275;28;20022;-75
2021/09/11 02:50:10;;;;;;;0.00;0.00;;;17.60;68.00;;;;;;5034025;28;20124;-74
2021/09/11 02:52:36;;;;;;;0.00;0.00;;;17.60;68.00;;;;;;5036194;28;20029;-75
2021/09/11 02:55:03;;;;;;;0.00;0.00;;;17.60;68.10;;;;;;5037225;28;20053;-74
2021/09/11 02:57:28;;;;;;;0.00;0.00;;;17.60;68.20;;;;;;5037954;28;20029;-74
2021/09/11 02:59:54;;;;;;;0.00;0.00;;;17.50;68.20;;;;;;5037484;28;20108;-75
2021/09/11 03:02:20;;;;;;;0.00;0.00;;;17.50;68.20;;;;;;5037300;28;20056;-75
2021/09/11 03:04:45;;;;;;;0.00;0.00;;;17.50;68.20;;;;;;5036493;28;20034;-75
2021/09/11 03:07:11;;;;;;;0.00;0.00;;;17.40;68.20;;;;;;5037217;28;20029;-74
2021/09/11 03:09:37;;;;;;;0.00;0.00;;;17.40;68.30;;;;;;5036865;28;20060;-75
2021/09/11 03:12:02;;;;;;;0.00;0.00;;;17.40;68.30;;;;;;5036855;28;20432;-75
2021/09/11 03:14:28;;;;;;;0.00;0.00;;;17.40;68.30;;;;;;5037704;28;20025;-75
2021/09/11 03:16:54;;;;;;;0.00;0.00;;;17.40;68.40;;;;;;5036968;28;20109;-74
2021/09/11 03:19:20;;;;;;;0.00;0.00;;;17.40;68.50;;;;;;5036754;28;20034;-75
2021/09/11 03:21:45;;;;;;;0.08;0.00;;;17.40;68.70;;;;;;5036976;28;20492;-75
2021/09/11 03:24:11;;;;;;;0.00;0.00;;;17.30;68.70;;;;;;5036876;28;20025;-75
2021/09/11 03:26:37;;;;;;;0.00;0.00;;;17.30;68.90;;;;;;5052362;28;20028;-75
2021/09/11 03:29:03;;;;;;;0.00;0.00;;;17.30;69.00;;;;;;5036852;28;20378;-74
2021/09/11 03:31:29;;;;;;;0.00;0.00;;;17.30;69.00;;;;;;5035439;28;20033;-75
2021/09/11 03:33:55;;;;;;;0.00;0.00;;;17.30;69.10;;;;;;5036796;28;20026;-76
2021/09/11 03:36:22;;;;;;;0.00;0.00;;;17.30;69.10;;;;;;5036775;28;20034;-76
2021/09/11 03:38:47;;;;;;;0.00;0.00;;;17.30;69.30;;;;;;5035946;28;20124;-76
2021/09/11 03:41:16;;;;;;;0.00;0.00;;;17.30;69.30;;;;;;5036479;28;20426;-75
2021/09/11 03:43:42;;;;;;;0.00;0.00;;;17.30;69.40;;;;;;5037087;28;20087;-75
2021/09/11 03:46:07;;;;;;;0.00;0.00;;;17.30;69.40;;;;;;5035131;28;20550;-75
2021/09/11 03:48:33;;;;;;;0.00;0.00;;;17.40;69.50;;;;;;5036190;28;20108;-75
2021/09/11 03:50:59;;;;;;;0.00;0.00;;;17.30;69.50;;;;;;5036149;28;20033;-75
2021/09/11 03:53:25;;;;;;;0.00;0.00;;;17.40;69.60;;;;;;5036793;28;20029;-74
2021/09/11 03:55:50;;;;;;;0.00;0.00;;;17.40;69.60;;;;;;5034786;28;20053;-74
2021/09/11 03:58:16;;;;;;;0.00;0.00;;;17.40;69.60;;;;;;5035218;28;20029;-74
2021/09/11 04:00:42;;;;;;;0.00;0.00;;;17.40;69.60;;;;;;5036278;28;20478;-76
2021/09/11 04:03:08;;;;;;;0.00;0.00;;;17.50;69.60;;;;;;5035464;28;20373;-76
2021/09/11 04:05:33;;;;;;;0.00;0.00;;;17.50;69.80;;;;;;5036580;28;20033;-74
2021/09/11 04:07:59;;;;;;;0.00;0.00;;;17.50;69.90;;;;;;5036205;28;20380;-75
2021/09/11 04:10:25;;;;;;;0.10;0.00;;;17.50;70.00;;;;;;5036039;28;20057;-75
2021/09/11 04:12:51;;;;;;;0.05;0.00;;;17.60;70.00;;;;;;5035920;28;20077;-75
2021/09/11 04:15:16;;;;;;;0.05;0.00;;;17.60;70.00;;;;;;5036258;28;20048;-75
2021/09/11 04:17:42;;;;;;;0.00;0.00;;;17.70;70.00;;;;;;5034965;28;20374;-75
2021/09/11 04:20:08;;;;;;;0.00;0.00;;;17.70;69.80;;;;;;5035556;28;20474;-75
2021/09/11 04:22:34;;;;;;;0.00;0.00;;;17.80;69.80;;;;;;5035540;28;20040;-75
2021/09/11 04:25:00;;;;;;;0.00;0.00;;;17.90;69.80;;;;;;5035529;28;20021;-76
2021/09/11 04:27:26;;;;;;;0.00;0.00;;;17.90;69.80;;;;;;5035443;28;20049;-76
2021/09/11 04:29:51;;;;;;;0.00;0.00;;;17.90;70.40;;;;;;5034481;28;20061;-75
2021/09/11 04:32:17;;;;;;;0.00;0.00;;;18.00;69.70;;;;;;5035402;28;20430;-75
2021/09/11 04:34:43;;;;;;;0.00;0.00;;;18.10;69.60;;;;;;5035590;28;20053;-75
2021/09/11 04:37:09;;;;;;;0.00;0.00;;;18.10;69.50;;;;;;5035670;28;20031;-75
2021/09/11 04:39:34;;;;;;;0.00;0.00;;;18.20;69.50;;;;;;5035441;28;20373;-76
2021/09/11 04:42:00;;;;;;;0.00;0.00;;;18.30;69.60;;;;;;5051208;28;20033;-75
2021/09/11 04:44:28;;;;;;;0.00;0.00;;;18.40;69.60;;;;;;5035348;28;20025;-75
2021/09/11 04:46:54;;;;;;;0.00;0.00;;;18.40;69.50;;;;;;5050593;28;20090;-76
2021/09/11 04:49:20;;;;;;;0.00;0.00;;;18.50;69.40;;;;;;5035412;28;20358;-76
2021/09/11 04:51:45;;;;;;;0.00;0.00;;;18.60;69.30;;;;;;5035474;28;20024;-76
2021/09/11 04:54:11;;;;;;;0.00;0.00;;;18.70;69.10;;;;;;5034960;28;20527;-74
2021/09/11 04:56:37;;;;;;;0.00;0.00;;;18.70;68.90;;;;;;5035960;28;20052;-74
2021/09/11 04:59:02;;;;;;;0.00;0.00;;;18.80;68.80;;;;;;5034852;28;20056;-75
2021/09/11 05:01:28;;;;;;;0.00;0.00;;;18.90;68.60;;;;;;5034742;28;20070;-75
2021/09/11 05:03:54;;;;;;;0.00;0.00;;;19.00;68.50;;;;;;5035257;28;20453;-76
2021/09/11 05:06:20;;;;;;;0.00;0.00;;;19.00;68.30;;;;;;5034765;28;20440;-75
2021/09/11 05:08:45;;;;;;;0.00;0.00;;;19.10;68.20;;;;;;5033633;28;20021;-75
2021/09/11 05:11:11;;;;;;;0.00;0.00;;;19.10;68.00;;;;;;5034867;28;20033;-75
2021/09/11 05:13:37;;;;;;;0.00;0.00;;;19.20;67.90;;;;;;5034573;28;20021;-75
2021/09/11 05:16:03;;;;;;;0.00;0.00;;;19.20;67.70;;;;;;5033152;28;20068;-76
2021/09/11 05:18:32;;;;;;;0.00;0.00;;;19.20;67.60;;;;;;5033211;28;20021;-75
2021/09/11 05:21:06;;;;;;;0.00;0.00;;;19.30;67.60;;;;;;5034922;28;20025;-75
2021/09/11 05:23:32;;;;;;;0.00;0.00;;;19.40;67.40;;;;;;5034603;28;20116;-77
2021/09/11 05:26:03;;;;;;;0.00;0.00;;;19.40;67.30;;;;;;5034675;28;20052;-77
2021/09/11 05:28:28;;;;;;;0.00;0.00;;;19.50;67.10;;;;;;5034455;28;20060;-76
2021/09/11 05:30:54;;;;;;;0.00;0.00;;;19.60;67.00;;;;;;5035408;28;20069;-77
2021/09/11 05:33:20;;;;;;;0.00;0.00;;;19.60;66.90;;;;;;5034301;28;20497;-77
2021/09/11 05:35:46;;;;;;;0.00;0.00;;;19.70;66.80;;;;;;5033391;28;20051;-76
2021/09/11 05:38:12;;;;;;;0.00;0.00;;;19.70;66.70;;;;;;5034871;28;20048;-75
2021/09/11 05:40:37;;;;;;;0.00;0.00;;;19.80;66.60;;;;;;5034841;28;20030;-76
2021/09/11 05:43:03;;;;;;;0.00;0.00;;;19.90;66.40;;;;;;5034748;28;20475;-76
2021/09/11 05:45:29;;;;;;;0.00;0.00;;;20.00;66.30;;;;;;5034426;28;20027;-75
2021/09/11 05:47:54;;;;;;;0.00;0.00;;;20.00;66.20;;;;;;5034092;28;20025;-76
2021/09/11 05:50:20;;;;;;;0.00;0.00;;;20.00;66.10;;;;;;5034134;28;20041;-76
2021/09/11 05:52:46;;;;;;;0.00;0.00;;;20.10;65.90;;;;;;5034083;28;20022;-75
2021/09/11 05:55:12;;;;;;;0.00;0.00;;;20.20;65.70;;;;;;5033991;28;20042;-75
2021/09/11 05:57:37;;;;;;;0.00;0.00;;;20.20;65.60;;;;;;5034711;28;20033;-75
2021/09/11 06:00:04;;;;;;;0.00;0.00;;;20.30;65.50;;;;;;5034127;28;20444;-75
2021/09/11 06:02:30;;;;;;;0.00;0.00;;;20.40;65.40;;;;;;5034112;28;20381;-76
2021/09/11 06:04:55;;;;;;;0.00;0.00;;;20.50;65.20;;;;;;5034298;28;20032;-75
2021/09/11 06:07:21;;;;;;;0.00;0.00;;;20.60;64.90;;;;;;5033006;28;20021;-78
2021/09/11 06:09:47;;;;;;;0.00;0.00;;;20.70;64.90;;;;;;5033825;28;20025;-77
2021/09/11 06:12:13;;;;;;;0.00;0.00;;;20.80;64.80;;;;;;5035008;28;20030;-75
2021/09/11 06:14:40;;;;;;;0.00;0.00;;;20.90;64.40;;;;;;5034783;28;20381;-75
2021/09/11 06:17:07;;;;;;;0.00;0.00;;;20.90;64.10;;;;;;5034269;28;20402;-76
2021/09/11 06:19:33;;;;;;;0.00;0.00;;;21.00;64.00;;;;;;5034216;28;20041;-76
2021/09/11 06:22:00;;;;;;;0.00;0.00;;;21.10;63.90;;;;;;5032859;28;20057;-75
2021/09/11 06:24:26;;;;;;;0.00;0.00;;;21.20;63.90;;;;;;5034318;28;20089;-77
2021/09/11 06:26:52;;;;;;;0.00;0.00;;;21.30;63.90;;;;;;5034786;28;20448;-77
2021/09/11 06:29:18;;;;;;;0.00;0.00;;;21.40;63.70;;;;;;5034601;28;20053;-77
2021/09/11 06:31:44;;;;;;;0.00;0.00;;;21.50;63.50;;;;;;5034567;28;20108;-77
2021/09/11 06:34:10;;;;;;;0.00;0.00;;;21.50;63.40;;;;;;5034454;28;20071;-78
2021/09/11 06:36:35;;;;;;;0.00;0.00;;;21.60;63.20;;;;;;5034896;28;20038;-77
2021/09/11 06:39:01;;;;;;;0.00;0.00;;;21.70;63.00;;;;;;5033625;28;20424;-79
2021/09/11 06:41:27;;;;;;;0.00;0.00;;;21.70;62.80;;;;;;5033711;28;20059;-78
2021/09/11 06:43:53;;;;;;;0.00;0.00;;;21.80;62.70;;;;;;5032661;28;20041;-78
2021/09/11 06:46:18;;;;;;;0.00;0.00;;;21.80;62.50;;;;;;5033777;28;20377;-78
2021/09/11 06:48:44;;;;;;;0.00;0.00;;;21.90;62.40;;;;;;5033373;28;20113;-79
2021/09/11 06:51:13;;;;;;;0.00;0.00;;;22.00;62.20;;;;;;5033693;28;20104;-78
2021/09/11 06:53:39;;;;;;;0.00;0.00;;;22.00;61.70;;;;;;5033313;28;20129;-78
2021/09/11 06:56:05;;;;;;;0.00;0.00;;;22.10;61.20;;;;;;5034026;28;20519;-77
2021/09/11 06:58:31;;;;;;;0.00;0.00;;;22.20;61.20;;;;;;5033424;28;20026;-78
2021/09/11 07:00:57;;;;;;;0.00;0.00;;;22.30;60.30;;;;;;5033678;28;20156;-78
2021/09/11 07:03:22;;;;;;;0.00;0.00;;;22.40;59.40;;;;;;5033810;28;20072;-78
2021/09/11 07:05:48;;;;;;;0.00;0.00;;;22.50;58.90;;;;;;5033354;28;20029;-78
2021/09/11 07:08:14;;;;;;;0.00;0.00;;;22.60;58.50;;;;;;5032858;28;20377;-77
2021/09/11 07:10:42;;;;;;;0.00;0.00;;;22.70;58.40;;;;;;5031975;28;20029;-78
2021/09/11 07:13:08;;;;;;;0.00;0.00;;;22.80;58.20;;;;;;5033561;28;20028;-77
2021/09/11 07:15:34;;;;;;;0.00;0.00;;;22.80;57.70;;;;;;5032969;28;20022;-77
2021/09/11 07:18:00;;;;;;;0.00;0.00;;;23.00;57.10;;;;;;5033112;28;20053;-78
2021/09/11 07:20:26;;;;;;;0.00;0.00;;;23.10;56.90;;;;;;5033089;28;20033;-78
2021/09/11 07:22:52;;;;;;;0.00;0.00;;;23.20;56.60;;;;;;5033346;28;20034;-80
2021/09/11 07:25:18;;;;;;;0.00;0.00;;;23.40;56.30;;;;;;5033128;28;20049;-78
2021/09/11 07:27:44;;;;;;;0.00;0.00;;;23.60;56.10;;;;;;5033140;28;20100;-79
2021/09/11 07:30:10;;;;;;;0.00;0.00;;;23.70;56.10;;;;;;5032929;28;20026;-79
2021/09/11 07:32:36;;;;;;;0.00;0.00;;;23.90;55.80;;;;;;5032993;28;20030;-77
2021/09/11 07:35:02;;;;;;;0.00;0.00;;;24.00;55.10;;;;;;5033300;28;20048;-77
2021/09/11 07:37:29;;;;;;;0.00;0.00;;;24.20;54.60;;;;;;5036045;28;20030;-76
2021/09/11 07:39:55;;;;;;;0.00;0.00;;;24.40;54.60;;;;;;5036218;28;20040;-75
2021/09/11 07:42:20;;;;;;;0.00;0.00;;;24.70;54.40;;;;;;5036242;28;20521;-77
2021/09/11 07:44:46;;;;;;;0.00;0.00;;;24.90;54.30;;;;;;5036691;28;20032;-78
2021/09/11 07:47:12;;;;;;;0.00;0.00;;;25.10;53.80;;;;;;5036243;28;20398;-79
2021/09/11 07:49:38;;;;;;;0.00;0.00;;;25.30;53.40;;;;;;5036403;28;20025;-78
2021/09/11 07:52:05;;;;;;;0.00;0.00;;;25.60;53.10;;;;;;5036469;28;20026;-78
2021/09/11 07:54:30;;;;;;;0.00;0.00;;;25.80;52.60;;;;;;5052248;28;20094;-76
2021/09/11 07:56:56;;;;;;;0.00;0.00;;;26.10;52.10;;;;;;5034400;28;20128;-78
2021/09/11 07:59:22;;;;;;;0.00;0.00;;;26.40;51.70;;;;;;5036229;28;20028;-78
2021/09/11 08:01:48;;;;;;;0.00;0.00;;;26.60;51.30;;;;;;5035196;28;20477;-78
2021/09/11 08:04:13;;;;;;;0.00;0.00;;;26.90;50.80;;;;;;5036255;28;20036;-78
2021/09/11 08:06:39;;;;;;;0.00;0.00;;;27.10;50.60;;;;;;5035949;28;20033;-78
2021/09/11 08:09:05;;;;;;;0.00;0.00;;;27.40;50.00;;;;;;5036560;28;20033;-77
2021/09/11 08:11:30;;;;;;;0.10;0.10;;;27.70;49.40;;;;;;5035975;28;20466;-77
2021/09/11 08:13:56;;;;;;;0.00;0.00;;;28.00;48.90;;;;;;5036173;28;20025;-79
2021/09/11 08:16:22;;;;;;;0.00;0.00;;;28.30;48.20;;;;;;5036809;28;20021;-79
2021/09/11 08:18:48;;;;;;;0.00;0.00;;;28.70;47.60;;;;;;5051679;28;20081;-78
2021/09/11 08:21:14;;;;;;;0.00;0.00;;;29.10;47.30;;;;;;5035407;28;20075;-78
2021/09/11 08:23:42;;;;;;;0.00;0.00;;;29.60;46.60;;;;;;5035671;28;20139;-77
2021/09/11 08:26:09;;;;;;;0.00;0.00;;;30.10;45.70;;;;;;5035424;28;20025;-77
2021/09/11 08:28:34;;;;;;;0.00;0.00;;;30.70;45.30;;;;;;5035955;28;20026;-78
2021/09/11 08:31:00;;;;;;;0.00;0.00;;;31.50;44.80;;;;;;5036521;28;20033;-77
2021/09/11 08:33:26;;;;;;;0.00;0.00;;;32.30;43.90;;;;;;5051712;28;20025;-77
2021/09/11 08:35:51;;;;;;;0.00;0.00;;;33.10;43.00;;;;;;5035214;28;20458;-79
2021/09/11 08:38:17;;;;;;;0.00;0.00;;;33.80;41.80;;;;;;5035290;28;20018;-78
2021/09/11 08:40:43;;;;;;;0.00;0.00;;;34.60;41.40;;;;;;5035512;28;20037;-77
2021/09/11 08:43:09;;;;;;;0.00;0.00;;;35.30;40.80;;;;;;5035859;28;20025;-77
2021/09/11 08:45:35;;;;;;;0.00;0.00;;;36.20;39.70;;;;;;5035955;28;20356;-78
2021/09/11 08:48:02;;;;;;;0.00;0.00;;;36.90;39.00;;;;;;5034776;28;20116;-78
2021/09/11 08:50:30;;;;;;;0.00;0.00;;;37.60;38.00;;;;;;5034015;28;20029;-76
2021/09/11 08:52:56;;;;;;;0.00;0.00;;;38.20;37.30;;;;;;5035100;28;20036;-78
2021/09/11 08:55:23;;;;;;;0.00;0.00;;;38.70;36.60;;;;;;5034848;28;20482;-77
2021/09/11 08:58:08;;;;;;;0.00;0.00;;;39.10;36.20;;;;;;5035513;28;20030;-78
2021/09/11 09:00:40;;;;;;;0.00;0.00;;;39.80;35.70;;;;;;5035567;28;20414;-77
2021/09/11 09:03:30;;;;;;;0.00;0.00;;;40.30;35.30;;;;;;5035106;28;20477;-78
2021/09/11 09:06:10;;;;;;;0.00;0.00;;;40.80;34.80;;;;;;5034686;28;20049;-78
2021/09/11 09:08:36;;;;;;;0.00;0.00;;;41.10;34.30;;;;;;5034949;28;20109;-78
2021/09/11 09:11:26;;;;;;;0.00;0.00;;;41.10;34.10;;;;;;5050090;28;20060;-79
2021/09/11 09:13:52;;;;;;;0.00;0.00;;;40.90;33.90;;;;;;5035379;28;20409;-78
2021/09/11 09:16:19;;;;;;;0.00;0.00;;;40.70;34.00;;;;;;5034505;28;20025;-78
2021/09/11 09:18:44;;;;;;;0.00;0.00;;;40.60;34.10;;;;;;5033854;28;20075;-77
2021/09/11 09:21:31;;;;;;;0.00;0.00;;;40.70;34.00;;;;;;5034774;28;20413;-77
2021/09/11 09:24:03;;;;;;;0.00;0.00;;;41.10;33.60;;;;;;5034718;28;20064;-77
2021/09/11 09:26:30;;;;;;;0.00;0.00;;;41.60;33.20;;;;;;5034724;28;20052;-75
2021/09/11 09:29:05;;;;;;;0.00;0.00;;;42.00;33.20;;;;;;5034098;28;20465;-78
2021/09/11 09:31:30;;;;;;;0.00;0.00;;;42.40;32.50;;;;;;5034504;28;20029;-76
2021/09/11 09:33:56;;;;;;;0.00;0.00;;;42.70;32.10;;;;;;5033291;28;20087;-77
2021/09/11 09:36:27;;;;;;;0.00;0.00;;;43.10;31.70;;;;;;5034941;28;20469;-77
2021/09/11 09:39:05;;;;;;;0.00;0.00;;;43.40;31.60;;;;;;5034045;28;20384;-77
2021/09/11 09:42:01;;;;;;;0.00;0.00;;;43.80;31.20;;;;;;5033014;28;20037;-79
2021/09/11 09:44:27;;;;;;;0.00;0.00;;;44.30;30.70;;;;;;5034268;28;20041;-77
2021/09/11 09:46:53;;;;;;;0.00;0.00;;;44.60;30.40;;;;;;5034308;28;20461;-78
2021/09/11 09:49:21;;;;;;;0.00;0.00;;;44.80;30.20;;;;;;5034522;28;20401;-77
2021/09/11 09:51:49;;;;;;;0.00;0.00;;;45.20;30.10;;;;;;5034185;28;20423;-77
2021/09/11 09:54:16;;;;;;;0.05;0.05;;;45.50;30.00;;;;;;5032820;28;20061;-77
2021/09/11 09:56:42;;;;;;;0.00;0.00;;;45.80;29.90;;;;;;5034640;28;20053;-77
2021/09/11 09:59:09;;;;;;;0.00;0.00;;;46.10;29.60;;;;;;5033973;28;20041;-78
2021/09/11 10:01:36;;;;;;;0.10;0.10;;;46.30;29.60;;;;;;5032873;28;20040;-77
2021/09/11 10:04:14;;;;;;;0.10;0.10;;;46.60;29.60;;;;;;5033817;28;20029;-77
2021/09/11 10:06:41;;;;;;;0.10;0.10;;;46.80;29.10;;;;;;5033073;28;20028;-78
2021/09/11 10:09:08;;;;;;;0.10;0.10;;;47.00;29.20;;;;;;5034307;28;20030;-76
2021/09/11 10:11:35;;;;;;;0.10;0.10;;;47.20;28.80;;;;;;5033744;28;20389;-77
2021/09/11 10:14:12;;;;;;;0.10;0.10;;;47.40;28.80;;;;;;5034541;28;20026;-77
2021/09/11 10:16:41;;;;;;;0.10;0.10;;;47.40;28.60;;;;;;5032748;28;20032;-77
2021/09/11 10:19:15;;;;;;;0.10;0.10;;;47.60;28.60;;;;;;5033620;28;20480;-77
2021/09/11 10:21:42;;;;;;;0.10;0.10;;;47.80;28.10;;;;;;5033712;28;20113;-76
2021/09/11 10:24:13;;;;;;;0.10;0.10;;;48.00;27.80;;;;;;5033604;28;20026;-76
2021/09/11 10:26:51;;;;;;;0.10;0.10;;;48.10;27.70;;;;;;5033867;28;20025;-78
2021/09/11 10:29:35;;;;;;;0.10;0.10;;;48.10;27.60;;;;;;5033679;28;20032;-75
2021/09/11 10:32:11;;;;;;;0.10;0.10;;;48.10;27.50;;;;;;5032270;28;20076;-76
2021/09/11 10:34:47;;;;;;;0.20;0.20;;;48.20;27.40;;;;;;5033951;28;20026;-76
2021/09/11 10:37:23;;;;;;;0.10;0.10;;;48.20;27.30;;;;;;5033955;28;20091;-76
2021/09/11 10:40:18;;;;;;;0.08;0.08;;;48.40;27.40;;;;;;5033839;28;20022;-76
2021/09/11 10:43:05;;;;;;;0.10;0.10;;;48.50;27.40;;;;;;5032684;28;20039;-76
2021/09/11 10:45:58;;;;;;;0.10;0.10;;;48.70;27.10;;;;;;5033945;28;20030;-75
2021/09/11 10:48:44;;;;;;;0.20;0.20;;;48.70;27.10;;;;;;5033510;28;20021;-76
2021/09/11 10:51:32;;;;;;;0.20;0.20;;;48.70;27.10;;;;;;5033543;28;20030;-75
2021/09/11 10:54:22;;;;;;;0.10;0.10;;;48.90;27.10;;;;;;5033424;28;20124;-76
2021/09/11 10:56:48;;;;;;;0.20;0.20;;;49.00;27.10;;;;;;5033154;28;20041;-77
2021/09/11 10:59:16;;;;;;;0.10;0.10;;;49.10;27.20;;;;;;5033700;28;20060;-76
2021/09/11 11:02:07;;;;;;;0.17;0.17;;;49.20;27.20;;;;;;5033265;28;20462;-77
2021/09/11 11:04:40;;;;;;;0.15;0.15;;;49.40;27.00;;;;;;5032475;28;20120;-76
2021/09/11 11:07:11;;;;;;;0.20;0.20;;;49.70;27.10;;;;;;5033205;28;20373;-77
2021/09/11 11:09:42;;;;;;;0.20;0.20;;;49.90;27.20;;;;;;5034031;28;20029;-76
2021/09/11 11:12:12;;;;;;;0.20;0.20;;;50.10;27.10;;;;;;5035562;28;20039;-76
2021/09/11 11:14:47;;;;;;;0.20;0.20;;;50.30;27.00;;;;;;5037442;28;20030;-76
2021/09/11 11:17:18;;;;;;;0.20;0.20;;;50.40;26.80;;;;;;5037586;28;20160;-76
2021/09/11 11:19:49;;;;;;;0.30;0.30;;;50.50;26.80;;;;;;5037093;28;20021;-76
2021/09/11 11:22:18;;;;;;;0.30;0.30;;;50.50;26.70;;;;;;5037269;28;20037;-76
2021/09/11 11:24:47;;;;;;;0.30;0.30;;;50.50;26.70;;;;;;5037147;28;20121;-75
2021/09/11 11:27:19;;;;;;;0.20;0.20;;;50.50;26.70;;;;;;5036822;28;20036;-76
2021/09/11 11:29:49;;;;;;;0.30;0.30;;;50.50;26.80;;;;;;5035723;28;20053;-76
2021/09/11 11:32:16;;;;;;;0.30;0.30;;;50.50;26.80;;;;;;5036508;28;20032;-76
2021/09/11 11:34:42;;;;;;;0.30;0.30;;;50.40;26.80;;;;;;5036314;28;20029;-75
2021/09/11 11:37:12;;;;;;;0.20;0.20;;;50.50;26.60;;;;;;5036809;28;20025;-75
2021/09/11 11:39:40;;;;;;;0.22;0.22;;;50.50;26.60;;;;;;5036550;28;20049;-77
2021/09/11 11:42:11;;;;;;;0.30;0.30;;;50.50;26.70;;;;;;5052409;28;20479;-76
2021/09/11 11:44:49;;;;;;;0.30;0.30;;;50.60;26.70;;;;;;5035675;28;20022;-75
2021/09/11 11:47:29;;;;;;;0.30;0.30;;;50.70;26.50;;;;;;5036325;28;20041;-76
2021/09/11 11:49:55;;;;;;;0.30;0.30;;;50.80;26.50;;;;;;5037173;28;20025;-76
2021/09/11 11:52:22;;;;;;;0.20;0.20;;;50.90;26.60;;;;;;5035401;28;20516;-76
2021/09/11 11:54:49;;;;;;;0.30;0.30;;;50.90;26.40;;;;;;5036626;28;20040;-76
2021/09/11 11:57:22;;;;;;;0.20;0.20;;;50.80;26.40;;;;;;5036285;28;20029;-77
2021/09/11 12:00:08;;;;;;;0.40;0.40;;;50.80;26.40;;;;;;5036184;28;20461;-77
2021/09/11 12:02:38;;;;;;;0.20;0.20;;;50.70;26.40;;;;;;5035996;28;20028;-76
2021/09/11 12:05:30;;;;;;;0.25;0.25;;;50.70;26.30;;;;;;5036127;28;20127;-78
2021/09/11 12:08:02;;;;;;;0.30;0.30;;;50.50;26.40;;;;;;5035649;28;20060;-76
2021/09/11 12:10:30;;;;;;;0.30;0.30;;;50.50;26.40;;;;;;5036335;28;20059;-76
2021/09/11 12:13:09;;;;;;;0.32;0.32;;;50.70;26.50;;;;;;5036092;28;20032;-77
2021/09/11 12:15:37;;;;;;;0.20;0.20;;;50.70;26.50;;;;;;5036017;28;20029;-77
2021/09/11 12:18:10;;;;;;;0.30;0.30;;;50.70;26.60;;;;;;5035404;28;20029;-75
2021/09/11 12:20:45;;;;;;;0.20;0.20;;;50.70;26.50;;;;;;5035737;28;20370;-76
2021/09/11 12:23:15;;;;;;;0.20;0.20;;;50.70;26.50;;;;;;5034468;28;20030;-77
2021/09/11 12:26:10;;;;;;;0.22;0.22;;;50.70;26.50;;;;;;5035556;28;20220;-76
2021/09/11 12:29:13;;;;;;;0.30;0.30;;;50.70;26.40;;;;;;5035534;28;20048;-76
2021/09/11 12:31:40;;;;;;;0.20;0.20;;;50.50;26.50;;;;;;5035541;28;20068;-76
2021/09/11 12:34:10;;;;;;;0.20;0.20;;;50.50;26.60;;;;;;5035132;28;20041;-79
2021/09/11 12:36:39;;;;;;;0.20;0.20;;;50.40;26.50;;;;;;5035595;28;20022;-77
2021/09/11 12:39:07;;;;;;;0.20;0.20;;;50.30;26.50;;;;;;5035753;28;20033;-77
2021/09/11 12:41:34;;;;;;;0.30;0.30;;;50.20;26.30;;;;;;5034590;28;20033;-78
2021/09/11 12:44:01;;;;;;;0.20;0.20;;;50.20;26.30;;;;;;5036211;28;20489;-76
2021/09/11 12:46:27;;;;;;;0.20;0.20;;;50.10;26.30;;;;;;5035519;28;20021;-77
2021/09/11 12:48:53;;;;;;;0.20;0.20;;;50.10;26.40;;;;;;5034906;28;20381;-78
2021/09/11 12:51:19;;;;;;;0.15;0.15;;;50.10;26.30;;;;;;5035450;28;20029;-77
2021/09/11 12:53:46;;;;;;;0.25;0.25;;;50.00;26.40;;;;;;5034624;28;20029;-78